Time;durP1;ratioP1;P1;durP2;ratioP2;P2;SDS_P1;SDS_P2;PMS_P1;PMS_P2;Temp;Humidity;BMP_temperature;BMP_pressure;BME280_temperature;BME280_humidity;BME280_pressure;Samples;Min_cycle;Max_cycle;Signal;HPM_P1;HPM_P2
2023/12/31 00:00:22;;;;;;;;;;;3.60;99.90;;;;;;4998687;28;20012;-89
2023/12/31 00:02:48;;;;;;;;;;;3.60;99.90;;;;;;4994974;28;19909;-89
2023/12/31 00:05:14;;;;;;;;;;;3.50;99.90;;;;;;4998687;28;19921;-90
2023/12/31 00:07:39;;;;;;;;;;;3.50;99.90;;;;;;4998726;28;20332;-89
2023/12/31 00:10:05;;;;;;;;;;;3.50;99.90;;;;;;5014811;28;20380;-89
2023/12/31 00:12:31;;;;;;;;;;;3.40;99.90;;;;;;4997914;28;20699;-90
2023/12/31 00:14:56;;;;;;;;;;;3.40;99.90;;;;;;5014565;28;19910;-89
2023/12/31 00:17:22;;;;;;;;;;;3.40;99.90;;;;;;4998634;28;20634;-89
2023/12/31 00:19:47;;;;;;;;;;;3.40;99.90;;;;;;4998099;28;19913;-89
2023/12/31 00:22:50;;;;;;;;;;;3.40;99.90;;;;;;4998259;28;19910;-89
2023/12/31 00:25:16;;;;;;;;;;;3.30;99.90;;;;;;5014694;28;19909;-90
2023/12/31 00:27:41;;;;;;;;;;;3.20;99.90;;;;;;4997874;28;19941;-88
2023/12/31 00:30:08;;;;;;;;;;;3.20;99.90;;;;;;4998172;28;20071;-89
2023/12/31 00:32:34;;;;;;;;;;;3.20;99.90;;;;;;4998146;28;20023;-89
2023/12/31 00:35:00;;;;;;;;;;;3.20;99.90;;;;;;4998153;28;19937;-90
2023/12/31 00:37:26;;;;;;;;;;;3.20;99.90;;;;;;4998340;28;19917;-89
2023/12/31 00:39:51;;;;;;;;;;;3.20;99.90;;;;;;4997526;28;19953;-90
2023/12/31 00:42:17;;;;;;;;;;;3.30;99.90;;;;;;4998013;28;19920;-89
2023/12/31 00:44:42;;;;;;;;;;;3.20;99.90;;;;;;5013929;28;19921;-88
2023/12/31 00:47:08;;;;;;;;;;;3.20;99.90;;;;;;4997203;28;19917;-90
2023/12/31 00:49:34;;;;;;;;;;;3.30;99.90;;;;;;5008275;28;20266;-89
2023/12/31 00:52:00;;;;;;;;;;;3.30;99.90;;;;;;5030740;28;19910;-88
2023/12/31 00:54:25;;;;;;;;;;;3.40;99.90;;;;;;5030095;28;20005;-88
2023/12/31 00:56:51;;;;;;;;;;;3.50;99.90;;;;;;5031132;28;19909;-89
2023/12/31 00:59:17;;;;;;;;;;;3.50;99.90;;;;;;5031635;28;20059;-89
2023/12/31 01:01:42;;;;;;;;;;;3.50;99.90;;;;;;5030736;28;19952;-89
2023/12/31 01:04:08;;;;;;;;;;;3.50;99.90;;;;;;5030903;28;19958;-90
2023/12/31 01:07:06;;;;;;;;;;;3.40;99.90;;;;;;5014070;28;19924;-89
2023/12/31 01:09:32;;;;;;;;;;;3.40;99.90;;;;;;5028471;28;19996;-89
2023/12/31 01:11:58;;;;;;;;;;;3.40;99.90;;;;;;5030005;28;20379;-89
2023/12/31 01:14:24;;;;;;;;;;;3.40;99.90;;;;;;5029496;28;19993;-88
2023/12/31 01:16:49;;;;;;;;;;;3.40;99.90;;;;;;5029742;28;20280;-89
2023/12/31 01:19:16;;;;;;;;;;;3.40;99.90;;;;;;5029201;28;19920;-89
2023/12/31 01:21:42;;;;;;;;;;;3.40;99.90;;;;;;5029772;28;20011;-88
2023/12/31 01:24:07;;;;;;;;;;;3.40;99.90;;;;;;5029231;28;19984;-86
2023/12/31 01:26:33;;;;;;;;;;;3.30;99.90;;;;;;5029134;28;19910;-88
2023/12/31 01:28:59;;;;;;;;;;;3.30;99.90;;;;;;5029496;28;20308;-89
2023/12/31 01:31:43;;;;;;;;;;;3.30;99.90;;;;;;5029713;28;19909;-88
2023/12/31 01:34:08;;;;;;;;;;;3.40;99.90;;;;;;5029778;28;19933;-89
2023/12/31 01:36:34;;;;;;;;;;;3.40;99.90;;;;;;5029835;28;19909;-89
2023/12/31 01:39:00;;;;;;;;;;;3.40;99.90;;;;;;4997090;28;19909;-90
2023/12/31 01:41:25;;;;;;;;;;;3.40;99.90;;;;;;5029245;28;19909;-89
2023/12/31 01:43:59;;;;;;;;;;;3.30;99.90;;;;;;5029547;28;19914;-89
2023/12/31 01:46:28;;;;;;;;;;;3.30;99.90;;;;;;5012858;28;19909;-87
2023/12/31 01:48:55;;;;;;;;;;;3.30;99.90;;;;;;5029672;28;19918;-88
2023/12/31 01:54:29;;;;;;;;;;;3.30;99.90;;;;;;5028957;28;19910;-90
2023/12/31 01:56:57;;;;;;;;;;;3.30;99.90;;;;;;5029262;28;19945;-88
2023/12/31 01:59:23;;;;;;;;;;;3.30;99.90;;;;;;5029301;28;19909;-89
2023/12/31 02:01:49;;;;;;;;;;;3.30;99.90;;;;;;5029431;28;20445;-89
2023/12/31 02:04:15;;;;;;;;;;;3.30;99.90;;;;;;5029171;28;19910;-89
2023/12/31 02:06:41;;;;;;;;;;;3.40;99.90;;;;;;5012388;28;20254;-88
2023/12/31 02:09:08;;;;;;;;;;;3.40;99.90;;;;;;5028397;28;19913;-88
2023/12/31 02:11:35;;;;;;;;;;;3.50;99.90;;;;;;5027284;28;19924;-89
2023/12/31 02:14:01;;;;;;;;;;;3.40;99.90;;;;;;5028965;28;19913;-89
2023/12/31 02:16:27;;;;;;;;;;;3.30;99.90;;;;;;5029638;28;19913;-88
2023/12/31 02:18:53;;;;;;;;;;;3.20;99.90;;;;;;5029811;28;19909;-89
2023/12/31 02:21:19;;;;;;;;;;;3.20;99.90;;;;;;5029319;28;19976;-88
2023/12/31 02:23:45;;;;;;;;;;;3.20;99.90;;;;;;5029105;28;20117;-89
2023/12/31 02:26:11;;;;;;;;;;;3.20;99.90;;;;;;5029654;28;19953;-89
2023/12/31 02:28:37;;;;;;;;;;;3.20;99.90;;;;;;5029393;28;19916;-90
2023/12/31 02:31:04;;;;;;;;;;;3.20;99.90;;;;;;5029533;28;19913;-89
2023/12/31 02:33:30;;;;;;;;;;;3.30;99.90;;;;;;5028694;28;19909;-90
2023/12/31 02:36:14;;;;;;;;;;;3.30;99.90;;;;;;5028941;28;19916;-88
2023/12/31 02:38:39;;;;;;;;;;;3.20;99.90;;;;;;5030050;28;19909;-90
2023/12/31 02:44:34;;;;;;;;;;;3.20;99.90;;;;;;5014227;28;19920;-89
2023/12/31 02:46:59;;;;;;;;;;;3.20;99.90;;;;;;5029144;28;20007;-88
2023/12/31 02:49:25;;;;;;;;;;;3.20;99.90;;;;;;5032582;28;19913;-89
2023/12/31 02:51:51;;;;;;;;;;;3.30;99.90;;;;;;5032746;28;20357;-90
2023/12/31 02:54:16;;;;;;;;;;;3.30;99.90;;;;;;5032235;28;19909;-89
2023/12/31 02:56:42;;;;;;;;;;;3.30;99.90;;;;;;5032520;28;20022;-89
2023/12/31 02:59:07;;;;;;;;;;;3.30;99.90;;;;;;5032233;28;20125;-89
2023/12/31 03:01:33;;;;;;;;;;;3.30;99.90;;;;;;5032679;28;19937;-89
2023/12/31 03:03:59;;;;;;;;;;;3.30;99.90;;;;;;5032552;28;19913;-89
2023/12/31 03:06:26;;;;;;;;;;;3.40;99.90;;;;;;5032106;28;19913;-89
2023/12/31 03:08:52;;;;;;;;;;;3.50;99.90;;;;;;5031705;28;20392;-89
2023/12/31 03:11:18;;;;;;;;;;;3.50;99.90;;;;;;5032570;28;19910;-88
2023/12/31 03:13:43;;;;;;;;;;;3.70;99.90;;;;;;5029164;28;19909;-89
2023/12/31 03:16:09;;;;;;;;;;;3.70;99.90;;;;;;5031905;28;20715;-90
2023/12/31 03:18:36;;;;;;;;;;;3.70;99.90;;;;;;5035506;28;19909;-94
2023/12/31 03:21:02;;;;;;;;;;;3.60;99.90;;;;;;5015303;28;20000;-94
2023/12/31 03:23:29;;;;;;;;;;;3.50;99.90;;;;;;5045777;28;19968;-94
2023/12/31 03:26:17;;;;;;;;;;;3.50;99.90;;;;;;5047155;28;19996;-94
2023/12/31 03:28:45;;;;;;;;;;;3.50;99.90;;;;;;5046058;28;19909;-94
2023/12/31 03:31:13;;;;;;;;;;;3.60;99.90;;;;;;5013459;28;19909;-94
2023/12/31 03:33:41;;;;;;;;;;;3.70;99.90;;;;;;5013577;28;20293;-95
2023/12/31 03:36:07;;;;;;;;;;;3.70;99.90;;;;;;5015209;28;19909;-95
2023/12/31 03:38:36;;;;;;;;;;;3.80;99.90;;;;;;5050003;28;19980;-94
2023/12/31 03:41:05;;;;;;;;;;;3.80;99.90;;;;;;5034105;28;20045;-94
2023/12/31 03:43:32;;;;;;;;;;;3.90;99.90;;;;;;5048065;28;19909;-95
2023/12/31 03:45:59;;;;;;;;;;;3.90;99.90;;;;;;5048491;28;19920;-96
2023/12/31 03:48:29;;;;;;;;;;;3.90;99.90;;;;;;5048795;28;19906;-95
2023/12/31 03:50:56;;;;;;;;;;;4.00;99.90;;;;;;5017334;28;19909;-94
2023/12/31 03:53:23;;;;;;;;;;;4.00;99.90;;;;;;5031326;28;19893;-95
2023/12/31 03:55:53;;;;;;;;;;;4.10;99.90;;;;;;5030361;28;19909;-95
2023/12/31 03:58:28;;;;;;;;;;;4.20;99.90;;;;;;5029355;28;19940;-95
2023/12/31 04:00:54;;;;;;;;;;;4.20;99.90;;;;;;5048488;28;19905;-95
2023/12/31 04:03:20;;;;;;;;;;;4.20;99.90;;;;;;5013551;28;19909;-94
2023/12/31 04:05:46;;;;;;;;;;;4.20;99.90;;;;;;5000332;28;19918;-94
2023/12/31 04:08:12;;;;;;;;;;;4.10;99.90;;;;;;5049936;28;19941;-95
2023/12/31 04:10:40;;;;;;;;;;;4.10;99.90;;;;;;5023101;28;19912;-95
2023/12/31 04:13:08;;;;;;;;;;;4.20;99.90;;;;;;5057110;28;19898;-95
2023/12/31 04:15:37;;;;;;;;;;;4.30;99.90;;;;;;5040726;28;19903;-95
2023/12/31 04:18:04;;;;;;;;;;;4.40;99.90;;;;;;5056956;28;19898;-94
2023/12/31 04:20:41;;;;;;;;;;;4.40;99.90;;;;;;5052488;23;20450;-89
2023/12/31 04:23:07;;;;;;;;;;;4.40;99.90;;;;;;5014759;28;20446;-88
2023/12/31 04:25:32;;;;;;;;;;;4.40;99.90;;;;;;5013563;28;19913;-87
2023/12/31 04:27:59;;;;;;;;;;;4.50;99.90;;;;;;4997922;28;19956;-88
2023/12/31 04:30:25;;;;;;;;;;;4.50;99.90;;;;;;4999296;28;19940;-86
2023/12/31 04:33:02;;;;;;;;;;;4.50;99.90;;;;;;5019980;28;20432;-86
2023/12/31 04:35:29;;;;;;;;;;;4.50;99.90;;;;;;5001464;28;20252;-86
2023/12/31 04:37:55;;;;;;;;;;;4.40;99.90;;;;;;4998760;28;19917;-87
2023/12/31 04:40:20;;;;;;;;;;;4.60;99.90;;;;;;4999738;28;20388;-87
2023/12/31 04:42:46;;;;;;;;;;;4.70;99.90;;;;;;5014460;28;19983;-86
2023/12/31 04:45:16;;;;;;;;;;;4.70;99.90;;;;;;5014075;28;20295;-85
2023/12/31 04:47:41;;;;;;;;;;;4.60;99.90;;;;;;5015570;28;20247;-84
2023/12/31 04:50:08;;;;;;;;;;;4.60;99.90;;;;;;5004079;28;19964;-86
2023/12/31 04:52:33;;;;;;;;;;;4.50;99.90;;;;;;4999017;28;19913;-87
2023/12/31 04:54:59;;;;;;;;;;;4.50;99.90;;;;;;5002841;28;19921;-88
2023/12/31 04:57:25;;;;;;;;;;;4.40;99.90;;;;;;5008191;28;20435;-90
2023/12/31 04:59:52;;;;;;;;;;;4.50;99.90;;;;;;4995445;28;19914;-86
2023/12/31 05:02:18;;;;;;;;;;;4.50;99.90;;;;;;5001052;28;19916;-87
2023/12/31 05:04:44;;;;;;;;;;;4.60;99.90;;;;;;4990525;28;19910;-86
2023/12/31 05:07:11;;;;;;;;;;;4.60;99.90;;;;;;5013535;28;19909;-87
2023/12/31 05:09:36;;;;;;;;;;;4.50;99.90;;;;;;5012327;28;19920;-87
2023/12/31 05:12:02;;;;;;;;;;;4.40;99.90;;;;;;5002191;28;19909;-86
2023/12/31 05:14:33;;;;;;;;;;;4.40;99.90;;;;;;5002033;28;19919;-86
2023/12/31 05:16:58;;;;;;;;;;;4.50;99.90;;;;;;4997729;28;19964;-87
2023/12/31 05:19:24;;;;;;;;;;;4.60;99.90;;;;;;5005669;28;19913;-85
2023/12/31 05:21:50;;;;;;;;;;;4.60;99.90;;;;;;4998275;28;19928;-87
2023/12/31 05:24:15;;;;;;;;;;;4.60;99.90;;;;;;5019099;28;19909;-87
2023/12/31 05:26:41;;;;;;;;;;;4.60;99.90;;;;;;5009553;28;19913;-87
2023/12/31 05:29:12;;;;;;;;;;;4.60;99.90;;;;;;5000922;28;20661;-87
2023/12/31 05:31:38;;;;;;;;;;;4.50;99.90;;;;;;4994933;28;19949;-85
2023/12/31 05:34:03;;;;;;;;;;;4.50;99.90;;;;;;5003987;28;19924;-86
2023/12/31 05:36:29;;;;;;;;;;;4.50;99.90;;;;;;5012664;28;19932;-87
2023/12/31 05:38:55;;;;;;;;;;;4.40;99.90;;;;;;5020037;28;19920;-89
2023/12/31 05:41:20;;;;;;;;;;;4.50;99.90;;;;;;5013748;28;20103;-89
2023/12/31 05:43:46;;;;;;;;;;;4.50;99.90;;;;;;5012968;28;20387;-89
2023/12/31 05:46:11;;;;;;;;;;;4.50;99.90;;;;;;4997434;28;19936;-86
2023/12/31 05:48:38;;;;;;;;;;;4.50;99.90;;;;;;5001292;28;19913;-87
2023/12/31 05:51:03;;;;;;;;;;;4.60;99.90;;;;;;5004641;28;19936;-88
2023/12/31 05:53:29;;;;;;;;;;;4.60;99.90;;;;;;4999189;28;20444;-86
2023/12/31 05:55:56;;;;;;;;;;;4.60;99.90;;;;;;5012737;28;19919;-86
2023/12/31 05:58:22;;;;;;;;;;;4.60;99.90;;;;;;5004428;28;19920;-88
2023/12/31 06:00:52;;;;;;;;;;;4.60;99.90;;;;;;4990869;28;19917;-87
2023/12/31 06:03:18;;;;;;;;;;;4.70;99.90;;;;;;4995526;28;19910;-87
2023/12/31 06:05:43;;;;;;;;;;;4.70;99.90;;;;;;5016407;28;20047;-88
2023/12/31 06:08:09;;;;;;;;;;;4.70;99.90;;;;;;5011898;28;19917;-87
2023/12/31 06:10:35;;;;;;;;;;;4.80;99.90;;;;;;4998320;28;20357;-87
2023/12/31 06:13:01;;;;;;;;;;;4.70;99.90;;;;;;5002915;28;19952;-87
2023/12/31 06:15:32;;;;;;;;;;;4.60;99.90;;;;;;4993086;28;20403;-87
2023/12/31 06:17:58;;;;;;;;;;;4.60;99.90;;;;;;5000456;28;20000;-86
2023/12/31 06:20:23;;;;;;;;;;;4.50;99.90;;;;;;5012383;28;19956;-88
2023/12/31 06:22:49;;;;;;;;;;;4.50;99.90;;;;;;5017979;28;20122;-88
2023/12/31 06:25:14;;;;;;;;;;;4.50;99.90;;;;;;4999802;28;19909;-87
2023/12/31 06:27:40;;;;;;;;;;;4.50;99.90;;;;;;5017983;28;19944;-88
2023/12/31 06:30:14;;;;;;;;;;;4.50;99.90;;;;;;4998926;28;19967;-87
2023/12/31 06:32:39;;;;;;;;;;;4.50;99.90;;;;;;5022325;28;19913;-87
2023/12/31 06:35:05;;;;;;;;;;;4.40;99.90;;;;;;4998926;28;19914;-86
2023/12/31 06:37:31;;;;;;;;;;;4.50;99.90;;;;;;5024372;28;19913;-88
2023/12/31 06:39:57;;;;;;;;;;;4.50;99.90;;;;;;5021589;28;19913;-85
2023/12/31 06:42:32;;;;;;;;;;;4.50;99.90;;;;;;5020288;28;20049;-86
2023/12/31 06:44:57;;;;;;;;;;;4.50;99.90;;;;;;5020235;28;19905;-86
2023/12/31 06:47:23;;;;;;;;;;;4.50;99.90;;;;;;5006936;28;19967;-87
2023/12/31 06:49:49;;;;;;;;;;;4.50;99.90;;;;;;5016822;28;20436;-86
2023/12/31 06:52:15;;;;;;;;;;;4.50;99.90;;;;;;5020365;28;19913;-86
2023/12/31 06:54:49;;;;;;;;;;;4.50;99.90;;;;;;5008287;28;19939;-87
2023/12/31 06:57:15;;;;;;;;;;;4.50;99.90;;;;;;5021471;28;19937;-87
2023/12/31 06:59:41;;;;;;;;;;;4.60;99.90;;;;;;5008860;28;20692;-87
2023/12/31 07:02:06;;;;;;;;;;;4.60;99.90;;;;;;5007579;28;19913;-87
2023/12/31 07:04:32;;;;;;;;;;;4.60;99.90;;;;;;5018209;28;20371;-86
2023/12/31 07:07:08;;;;;;;;;;;4.60;99.90;;;;;;4995999;28;19913;-86
2023/12/31 07:09:33;;;;;;;;;;;4.70;99.90;;;;;;4999995;28;20004;-87
2023/12/31 07:11:59;;;;;;;;;;;4.50;99.90;;;;;;4998782;28;19952;-89
2023/12/31 07:14:26;;;;;;;;;;;4.50;99.90;;;;;;5014752;28;20437;-85
2023/12/31 07:16:52;;;;;;;;;;;4.50;99.90;;;;;;5016228;28;19957;-87
2023/12/31 07:19:20;;;;;;;;;;;4.50;99.90;;;;;;5016368;28;19913;-87
2023/12/31 07:21:48;;;;;;;;;;;4.50;99.90;;;;;;5010035;28;19913;-86
2023/12/31 07:24:14;;;;;;;;;;;4.50;99.90;;;;;;4991137;28;19913;-88
2023/12/31 07:26:40;;;;;;;;;;;4.50;99.90;;;;;;5014013;28;19913;-88
2023/12/31 07:29:05;;;;;;;;;;;4.50;99.90;;;;;;5009866;28;19914;-93
2023/12/31 07:31:34;;;;;;;;;;;4.40;99.90;;;;;;5014977;28;19920;-87
2023/12/31 07:34:10;;;;;;;;;;;4.40;99.90;;;;;;5004665;28;19932;-88
2023/12/31 07:36:36;;;;;;;;;;;4.40;99.90;;;;;;5014761;28;20330;-87
2023/12/31 07:39:03;;;;;;;;;;;4.30;99.90;;;;;;5015713;28;19909;-88
2023/12/31 07:41:29;;;;;;;;;;;4.30;99.90;;;;;;5014744;28;19913;-87
2023/12/31 07:43:54;;;;;;;;;;;4.40;99.90;;;;;;5015457;28;20623;-88
2023/12/31 07:46:27;;;;;;;;;;;4.40;99.90;;;;;;5015184;28;19917;-85
2023/12/31 07:48:53;;;;;;;;;;;4.30;99.90;;;;;;5013746;28;19968;-89
2023/12/31 07:51:19;;;;;;;;;;;4.40;99.90;;;;;;5008275;28;19909;-88
2023/12/31 07:53:44;;;;;;;;;;;4.50;99.90;;;;;;5010890;28;19909;-90
2023/12/31 07:56:10;;;;;;;;;;;4.50;99.90;;;;;;5013053;28;19909;-85
2023/12/31 07:58:43;;;;;;;;;;;4.60;99.90;;;;;;5006497;28;19913;-87
2023/12/31 08:01:49;;;;;;;;;;;4.60;99.90;;;;;;5011142;28;19917;-87
2023/12/31 08:04:14;;;;;;;;;;;4.60;99.90;;;;;;4980056;28;19964;-86
2023/12/31 08:06:40;;;;;;;;;;;4.60;99.90;;;;;;5009523;28;19914;-86
2023/12/31 08:09:15;;;;;;;;;;;4.70;99.90;;;;;;5006475;28;19991;-87
2023/12/31 08:11:40;;;;;;;;;;;4.70;99.90;;;;;;4993756;28;19915;-88
2023/12/31 08:14:06;;;;;;;;;;;4.70;99.90;;;;;;4993580;28;20592;-88
2023/12/31 08:16:32;;;;;;;;;;;4.70;99.90;;;;;;5008506;28;20405;-87
2023/12/31 08:18:57;;;;;;;;;;;4.70;99.90;;;;;;5005112;28;19913;-88
2023/12/31 08:21:23;;;;;;;;;;;4.70;99.90;;;;;;5013390;28;19984;-88
2023/12/31 08:23:51;;;;;;;;;;;4.70;99.90;;;;;;5010206;28;20012;-88
2023/12/31 08:26:17;;;;;;;;;;;4.70;99.90;;;;;;5016104;28;19951;-88
2023/12/31 08:28:43;;;;;;;;;;;4.80;99.90;;;;;;5015256;28;20004;-86
2023/12/31 08:31:13;;;;;;;;;;;4.80;99.90;;;;;;5012624;28;20432;-88
2023/12/31 08:33:38;;;;;;;;;;;4.80;99.90;;;;;;5031455;28;20708;-87
2023/12/31 08:36:11;;;;;;;;;;;4.80;99.90;;;;;;4996923;28;19953;-87
2023/12/31 08:38:37;;;;;;;;;;;4.80;99.90;;;;;;4996642;28;19913;-86
2023/12/31 08:41:03;;;;;;;;;;;4.80;99.90;;;;;;5011093;28;19924;-85
2023/12/31 08:43:28;;;;;;;;;;;4.80;99.90;;;;;;5012998;28;19999;-85
2023/12/31 08:45:54;;;;;;;;;;;4.90;99.90;;;;;;5006051;28;19919;-87
2023/12/31 08:48:29;;;;;;;;;;;4.90;99.90;;;;;;5011359;28;19919;-88
2023/12/31 08:50:55;;;;;;;;;;;5.00;99.90;;;;;;5012082;28;20328;-87
2023/12/31 08:53:20;;;;;;;;;;;5.00;99.90;;;;;;5020453;28;19928;-88
2023/12/31 08:55:48;;;;;;;;;;;5.00;99.90;;;;;;5010295;28;20460;-86
2023/12/31 08:58:14;;;;;;;;;;;5.10;99.90;;;;;;5016793;28;19905;-88
2023/12/31 09:00:39;;;;;;;;;;;5.20;99.90;;;;;;5013832;28;19921;-87
2023/12/31 09:03:07;;;;;;;;;;;5.20;99.90;;;;;;4995842;28;19918;-88
2023/12/31 09:05:33;;;;;;;;;;;5.10;99.90;;;;;;5003188;28;19914;-90
2023/12/31 09:07:58;;;;;;;;;;;5.20;99.90;;;;;;5000534;28;19913;-88
2023/12/31 09:10:25;;;;;;;;;;;5.10;99.90;;;;;;4996313;28;19913;-88
2023/12/31 09:12:50;;;;;;;;;;;5.10;99.90;;;;;;5018586;28;19909;-87
2023/12/31 09:15:16;;;;;;;;;;;5.10;99.90;;;;;;5013156;28;19932;-88
2023/12/31 09:20:45;;;;;;;;;;;5.30;99.90;;;;;;4972855;28;20314;-89
2023/12/31 09:23:11;;;;;;;;;;;5.40;99.90;;;;;;4967669;28;19910;-89
2023/12/31 09:25:36;;;;;;;;;;;5.40;99.90;;;;;;4962480;28;19910;-90
2023/12/31 09:28:02;;;;;;;;;;;5.40;99.90;;;;;;4973351;28;19914;-89
2023/12/31 09:30:28;;;;;;;;;;;5.40;99.90;;;;;;4953221;28;20392;-90
2023/12/31 09:32:53;;;;;;;;;;;5.40;99.90;;;;;;4971576;28;20270;-89
2023/12/31 09:35:35;;;;;;;;;;;5.40;99.90;;;;;;4958179;28;19914;-89
2023/12/31 09:38:00;;;;;;;;;;;5.50;99.90;;;;;;4973869;28;19945;-90
2023/12/31 09:40:26;;;;;;;;;;;5.50;99.90;;;;;;4958192;28;19918;-89
2023/12/31 09:42:52;;;;;;;;;;;5.50;99.90;;;;;;4973773;28;20684;-90
2023/12/31 09:45:21;;;;;;;;;;;5.60;99.90;;;;;;4959282;28;19918;-89
2023/12/31 09:47:51;;;;;;;;;;;5.60;99.90;;;;;;4955233;28;20656;-89
2023/12/31 09:50:18;;;;;;;;;;;5.70;99.90;;;;;;4969691;28;19914;-89
2023/12/31 09:52:46;;;;;;;;;;;5.70;99.90;;;;;;4966589;28;19915;-88
2023/12/31 09:55:12;;;;;;;;;;;5.80;99.90;;;;;;4965444;28;19920;-88
2023/12/31 09:57:39;;;;;;;;;;;5.80;99.90;;;;;;4953483;28;19921;-90
2023/12/31 10:00:05;;;;;;;;;;;5.90;99.90;;;;;;4976713;28;19921;-90
2023/12/31 10:02:36;;;;;;;;;;;5.90;99.90;;;;;;4964274;28;20273;-88
2023/12/31 10:05:02;;;;;;;;;;;6.00;99.90;;;;;;4979181;28;20285;-89
2023/12/31 10:07:30;;;;;;;;;;;6.00;99.90;;;;;;4947619;28;19925;-89
2023/12/31 10:09:56;;;;;;;;;;;6.00;99.90;;;;;;4979968;28;19918;-90
2023/12/31 10:12:22;;;;;;;;;;;6.10;99.90;;;;;;4947160;28;19914;-89
2023/12/31 10:14:49;;;;;;;;;;;6.10;99.90;;;;;;4979880;28;19917;-90
2023/12/31 10:17:14;;;;;;;;;;;6.00;99.90;;;;;;4963024;28;19916;-89
2023/12/31 10:19:40;;;;;;;;;;;6.00;99.90;;;;;;4968477;28;20344;-89
2023/12/31 10:22:07;;;;;;;;;;;5.90;99.90;;;;;;4978640;28;20361;-89
2023/12/31 10:24:33;;;;;;;;;;;6.00;99.90;;;;;;4963041;28;19917;-89
2023/12/31 10:27:04;;;;;;;;;;;6.00;99.90;;;;;;4975350;28;19922;-89
2023/12/31 10:29:33;;;;;;;;;;;6.10;99.90;;;;;;4962714;28;20024;-89
2023/12/31 10:31:59;;;;;;;;;;;6.20;99.90;;;;;;4975249;28;19916;-89
2023/12/31 10:34:25;;;;;;;;;;;6.30;99.90;;;;;;4957291;28;20432;-89
2023/12/31 10:37:07;;;;;;;;;;;6.30;99.90;;;;;;4960514;28;19914;-90
2023/12/31 10:39:34;;;;;;;;;;;6.40;99.90;;;;;;4970150;28;19918;-90
2023/12/31 10:42:04;;;;;;;;;;;6.40;99.90;;;;;;4967345;28;19922;-90
2023/12/31 10:44:53;;;;;;;;;;;6.40;99.90;;;;;;4961712;28;19954;-89
2023/12/31 10:47:22;;;;;;;;;;;6.40;99.90;;;;;;4968745;28;20713;-89
2023/12/31 10:49:58;;;;;;;;;;;6.50;99.90;;;;;;4958617;28;19949;-89
2023/12/31 10:52:25;;;;;;;;;;;6.50;99.90;;;;;;4958581;28;20006;-89
2023/12/31 10:54:51;;;;;;;;;;;6.50;99.90;;;;;;4970070;28;19921;-89
2023/12/31 10:57:17;;;;;;;;;;;6.40;99.90;;;;;;4969112;28;19910;-89
2023/12/31 10:59:43;;;;;;;;;;;6.40;99.90;;;;;;4960869;28;20377;-89
2023/12/31 11:02:16;;;;;;;;;;;6.50;99.90;;;;;;4962440;28;20454;-89
2023/12/31 11:04:47;;;;;;;;;;;6.50;99.90;;;;;;4959709;28;19910;-89
2023/12/31 11:07:14;;;;;;;;;;;6.60;99.90;;;;;;4961944;28;19914;-89
2023/12/31 11:09:40;;;;;;;;;;;6.60;99.90;;;;;;4955790;28;19914;-89
2023/12/31 11:12:07;;;;;;;;;;;6.70;99.90;;;;;;4957620;28;20354;-89
2023/12/31 11:14:34;;;;;;;;;;;6.70;99.90;;;;;;4959505;28;19910;-89
2023/12/31 11:16:59;;;;;;;;;;;6.70;99.90;;;;;;4956254;28;20173;-90
2023/12/31 11:19:37;;;;;;;;;;;6.50;99.90;;;;;;4959150;28;19913;-89
2023/12/31 11:22:09;;;;;;;;;;;6.40;99.90;;;;;;4958393;28;19996;-89
2023/12/31 11:24:35;;;;;;;;;;;6.20;99.90;;;;;;4979225;28;20410;-89
2023/12/31 11:27:03;;;;;;;;;;;6.00;99.90;;;;;;4955505;28;20024;-89
2023/12/31 11:29:29;;;;;;;;;;;5.80;99.90;;;;;;4958750;28;19980;-90
2023/12/31 11:31:54;;;;;;;;;;;5.60;99.90;;;;;;4959366;28;20004;-89
2023/12/31 11:34:20;;;;;;;;;;;5.60;99.90;;;;;;4962960;28;20298;-89
2023/12/31 11:36:46;;;;;;;;;;;5.50;99.90;;;;;;4972426;28;19910;-89
2023/12/31 11:39:19;;;;;;;;;;;5.20;99.90;;;;;;4959169;28;20009;-89
2023/12/31 11:41:45;;;;;;;;;;;5.20;99.90;;;;;;4974222;28;20333;-90
2023/12/31 11:44:29;;;;;;;;;;;5.20;99.90;;;;;;4974286;28;20005;-90
2023/12/31 11:46:55;;;;;;;;;;;5.20;99.90;;;;;;4959648;28;19997;-90
2023/12/31 11:49:20;;;;;;;;;;;5.20;99.90;;;;;;4959815;28;20056;-90
2023/12/31 11:51:52;;;;;;;;;;;5.20;99.90;;;;;;4961010;28;19917;-91
2023/12/31 11:54:20;;;;;;;;;;;5.30;99.90;;;;;;4973395;28;19915;-90
2023/12/31 11:56:45;;;;;;;;;;;5.30;99.90;;;;;;4960162;28;19910;-89
2023/12/31 11:59:11;;;;;;;;;;;5.40;99.90;;;;;;4959608;28;19910;-89
2023/12/31 12:01:37;;;;;;;;;;;5.40;99.90;;;;;;4969230;28;19914;-90
2023/12/31 12:04:03;;;;;;;;;;;5.40;99.90;;;;;;4959676;28;19918;-90
2023/12/31 12:06:29;;;;;;;;;;;5.40;99.90;;;;;;4959847;28;19914;-89
2023/12/31 12:08:54;;;;;;;;;;;5.40;99.90;;;;;;4960015;28;20013;-89
2023/12/31 12:11:21;;;;;;;;;;;5.40;99.90;;;;;;4960083;28;20362;-91
2023/12/31 12:13:47;;;;;;;;;;;5.40;99.90;;;;;;4944045;28;19910;-90
2023/12/31 12:16:13;;;;;;;;;;;5.40;99.90;;;;;;4959749;28;19933;-90
2023/12/31 12:18:39;;;;;;;;;;;5.40;99.90;;;;;;4944087;28;19949;-90
2023/12/31 12:21:04;;;;;;;;;;;5.40;99.90;;;;;;4980650;28;19917;-91
2023/12/31 12:23:30;;;;;;;;;;;5.40;99.90;;;;;;4956038;28;19914;-89
2023/12/31 12:25:57;;;;;;;;;;;5.40;99.90;;;;;;4972473;28;19917;-91
2023/12/31 12:28:55;;;;;;;;;;;5.40;99.90;;;;;;4975828;28;19910;-91
2023/12/31 12:31:21;;;;;;;;;;;5.40;99.90;;;;;;4974168;28;19914;-90
2023/12/31 12:37:15;;;;;;;;;;;5.40;99.90;;;;;;4976067;28;20026;-90
2023/12/31 12:39:41;;;;;;;;;;;5.40;99.90;;;;;;4960080;28;20586;-90
2023/12/31 12:42:08;;;;;;;;;;;5.40;99.90;;;;;;4976769;28;19917;-90
2023/12/31 12:44:35;;;;;;;;;;;5.40;99.90;;;;;;4959839;28;19913;-89
2023/12/31 12:47:02;;;;;;;;;;;5.40;99.90;;;;;;4978842;28;20378;-89
2023/12/31 12:49:27;;;;;;;;;;;5.40;99.90;;;;;;4959508;28;19945;-91
2023/12/31 12:51:53;;;;;;;;;;;5.40;99.90;;;;;;4944120;28;19917;-90
2023/12/31 12:54:18;;;;;;;;;;;5.40;99.90;;;;;;4959357;28;20282;-90
2023/12/31 12:56:44;;;;;;;;;;;5.40;99.90;;;;;;4959739;28;20382;-90
2023/12/31 12:59:10;;;;;;;;;;;5.40;99.90;;;;;;4955170;28;19997;-89
2023/12/31 13:01:36;;;;;;;;;;;5.40;99.90;;;;;;4958282;28;19910;-89
2023/12/31 13:04:02;;;;;;;;;;;5.40;99.90;;;;;;4958100;28;20366;-90
2023/12/31 13:06:28;;;;;;;;;;;5.40;99.90;;;;;;4957751;28;19910;-90
2023/12/31 13:09:03;;;;;;;;;;;5.40;99.90;;;;;;4942399;28;19910;-91
2023/12/31 13:11:59;;;;;;;;;;;5.50;99.90;;;;;;4973512;28;19910;-89
2023/12/31 13:14:25;;;;;;;;;;;5.40;99.90;;;;;;4963847;28;19915;-90
2023/12/31 13:16:50;;;;;;;;;;;5.40;99.90;;;;;;4957192;28;20381;-89
2023/12/31 13:19:18;;;;;;;;;;;5.40;99.90;;;;;;4971054;28;19920;-89
2023/12/31 13:21:43;;;;;;;;;;;5.50;99.90;;;;;;4957235;28;19988;-89
2023/12/31 13:24:37;;;;;;;;;;;5.50;99.90;;;;;;4960386;28;20322;-89
2023/12/31 13:27:04;;;;;;;;;;;5.50;99.90;;;;;;4952550;29;19926;-89
2023/12/31 13:29:42;;;;;;;;;;;5.50;99.90;;;;;;4971553;28;19926;-89
2023/12/31 13:32:09;;;;;;;;;;;5.50;99.90;;;;;;4966448;28;20044;-89
2023/12/31 13:34:35;;;;;;;;;;;5.50;99.90;;;;;;4969544;28;19929;-89
2023/12/31 13:37:00;;;;;;;;;;;5.60;99.90;;;;;;4961495;28;20278;-88
2023/12/31 13:39:26;;;;;;;;;;;5.50;99.90;;;;;;4940220;28;20009;-88
2023/12/31 13:41:51;;;;;;;;;;;5.50;99.90;;;;;;4940988;28;19910;-88
2023/12/31 13:44:17;;;;;;;;;;;5.50;99.90;;;;;;4954076;28;19949;-89
2023/12/31 13:46:43;;;;;;;;;;;5.40;99.90;;;;;;4957105;28;20391;-89
2023/12/31 13:49:08;;;;;;;;;;;5.30;99.90;;;;;;4953661;28;19910;-89
2023/12/31 13:51:35;;;;;;;;;;;5.30;99.90;;;;;;4970332;28;19914;-89
2023/12/31 13:54:00;;;;;;;;;;;5.30;99.90;;;;;;4957841;28;19917;-89
2023/12/31 13:56:26;;;;;;;;;;;5.30;99.90;;;;;;4939878;28;19914;-89
2023/12/31 13:58:52;;;;;;;;;;;5.40;99.90;;;;;;4956952;28;20261;-89
2023/12/31 14:01:17;;;;;;;;;;;5.30;99.90;;;;;;4953942;28;19917;-89
2023/12/31 14:03:43;;;;;;;;;;;5.40;99.90;;;;;;4956933;28;19960;-89
2023/12/31 14:06:09;;;;;;;;;;;5.30;99.90;;;;;;4953591;28;19911;-89
2023/12/31 14:08:35;;;;;;;;;;;5.30;99.90;;;;;;4956743;28;19910;-89
2023/12/31 14:11:00;;;;;;;;;;;5.30;99.90;;;;;;4937692;29;20626;-89
2023/12/31 14:13:26;;;;;;;;;;;5.40;99.90;;;;;;4968996;28;19969;-89
2023/12/31 14:15:51;;;;;;;;;;;5.30;99.90;;;;;;4953902;28;20290;-89
2023/12/31 14:18:22;;;;;;;;;;;5.30;99.90;;;;;;4956600;28;20005;-89
2023/12/31 14:20:48;;;;;;;;;;;5.30;99.90;;;;;;4971780;28;19918;-89
2023/12/31 14:23:13;;;;;;;;;;;5.20;99.90;;;;;;4960232;28;19961;-89
2023/12/31 14:25:39;;;;;;;;;;;5.20;99.90;;;;;;4973747;28;19910;-88
2023/12/31 14:28:05;;;;;;;;;;;5.20;99.90;;;;;;4973746;28;19914;-90
2023/12/31 14:30:31;;;;;;;;;;;5.20;99.90;;;;;;4957588;28;19951;-89
2023/12/31 14:32:56;;;;;;;;;;;5.20;99.90;;;;;;4958018;28;19916;-89
2023/12/31 14:35:22;;;;;;;;;;;5.20;99.90;;;;;;4955915;28;19940;-90
2023/12/31 14:37:47;;;;;;;;;;;5.20;99.90;;;;;;4958000;28;20389;-88
2023/12/31 14:40:13;;;;;;;;;;;5.20;99.90;;;;;;4957940;28;19918;-89
2023/12/31 14:42:39;;;;;;;;;;;5.20;99.90;;;;;;4973566;28;19917;-89
2023/12/31 14:45:05;;;;;;;;;;;5.10;99.90;;;;;;4956748;28;19914;-89